Time;durP1;ratioP1;P1;durP2;ratioP2;P2;SDS_P1;SDS_P2;PMS_P1;PMS_P2;Temp;Humidity;BMP_temperature;BMP_pressure;BME280_temperature;BME280_humidity;BME280_pressure;Samples;Min_cycle;Max_cycle;Signal;HPM_P1;HPM_P2
2020/12/29 00:01:49;;;;;;;;;;;4.80;91.80;;;;;;5089814;28;19928;-71
2020/12/29 00:04:18;;;;;;;;;;;4.90;91.00;;;;;;5089978;28;19928;-70
2020/12/29 00:06:51;;;;;;;;;;;4.90;90.90;;;;;;5094310;28;19924;-70
2020/12/29 00:09:19;;;;;;;;;;;4.80;90.80;;;;;;5093809;28;19936;-66
2020/12/29 00:11:45;;;;;;;;;;;4.80;91.30;;;;;;5076112;28;19924;-70
2020/12/29 00:14:13;;;;;;;;;;;4.90;91.20;;;;;;5093805;28;19978;-71
2020/12/29 00:16:39;;;;;;;;;;;4.80;90.80;;;;;;5093726;28;20530;-71
2020/12/29 00:19:13;;;;;;;;;;;4.90;90.90;;;;;;5093811;28;19924;-70
2020/12/29 00:21:40;;;;;;;;;;;5.00;90.90;;;;;;5093686;28;19924;-71
2020/12/29 00:24:06;;;;;;;;;;;4.90;90.70;;;;;;5093812;28;19924;-71
2020/12/29 00:26:32;;;;;;;;;;;5.00;91.00;;;;;;5101476;28;19927;-72
2020/12/29 00:28:59;;;;;;;;;;;4.90;91.20;;;;;;5114053;28;19953;-71
2020/12/29 00:31:26;;;;;;;;;;;5.00;90.80;;;;;;5114086;28;19924;-70
2020/12/29 00:33:54;;;;;;;;;;;5.00;90.60;;;;;;5094708;28;19924;-71
2020/12/29 00:36:21;;;;;;;;;;;4.90;90.50;;;;;;5093335;28;19931;-71
2020/12/29 00:38:47;;;;;;;;;;;4.90;91.00;;;;;;5111926;28;20291;-71
2020/12/29 00:41:14;;;;;;;;;;;5.00;90.70;;;;;;5108119;28;19924;-70
2020/12/29 00:43:41;;;;;;;;;;;4.90;90.40;;;;;;5093468;28;19951;-70
2020/12/29 00:46:11;;;;;;;;;;;4.80;90.70;;;;;;5093397;28;19932;-70
2020/12/29 00:48:38;;;;;;;;;;;4.80;91.30;;;;;;5092728;28;19924;-70
2020/12/29 00:51:08;;;;;;;;;;;4.80;91.10;;;;;;5093146;28;19924;-71
2020/12/29 00:53:35;;;;;;;;;;;4.70;91.20;;;;;;5093019;28;19925;-71
2020/12/29 00:56:06;;;;;;;;;;;4.70;90.90;;;;;;5093232;28;20361;-71
2020/12/29 00:58:32;;;;;;;;;;;4.80;91.70;;;;;;5093141;28;19924;-70
2020/12/29 01:00:58;;;;;;;;;;;4.80;90.80;;;;;;5093034;28;19932;-71
2020/12/29 01:03:25;;;;;;;;;;;4.70;90.80;;;;;;5092888;28;19924;-71
2020/12/29 01:05:51;;;;;;;;;;;4.60;90.90;;;;;;5092841;28;19924;-72
2020/12/29 01:08:18;;;;;;;;;;;4.60;90.90;;;;;;5093006;28;19931;-71
2020/12/29 01:10:45;;;;;;;;;;;4.50;90.80;;;;;;5092915;28;19932;-70
2020/12/29 01:13:13;;;;;;;;;;;4.50;91.10;;;;;;5092864;28;19969;-70
2020/12/29 01:15:39;;;;;;;;;;;4.50;91.10;;;;;;5095648;28;19932;-70
2020/12/29 01:18:06;;;;;;;;;;;4.40;91.00;;;;;;5113006;28;19924;-72
2020/12/29 01:20:32;;;;;;;;;;;4.50;91.40;;;;;;5113396;28;19924;-72
2020/12/29 01:22:58;;;;;;;;;;;4.40;91.40;;;;;;5112934;28;19981;-71
2020/12/29 01:25:24;;;;;;;;;;;4.30;91.70;;;;;;5113280;28;20002;-71
2020/12/29 01:27:51;;;;;;;;;;;4.40;92.20;;;;;;5097854;28;19924;-72
2020/12/29 01:30:17;;;;;;;;;;;4.50;91.30;;;;;;5079165;28;19932;-77
2020/12/29 01:32:44;;;;;;;;;;;4.50;90.90;;;;;;5101311;28;19931;-75
2020/12/29 01:35:10;;;;;;;;;;;4.50;91.50;;;;;;5096404;28;19932;-70
2020/12/29 01:37:40;;;;;;;;;;;4.40;91.30;;;;;;5100744;28;19924;-70
2020/12/29 01:40:07;;;;;;;;;;;4.60;91.60;;;;;;5113009;28;19935;-71
2020/12/29 01:42:33;;;;;;;;;;;4.70;90.30;;;;;;5077598;28;19928;-70
2020/12/29 01:44:59;;;;;;;;;;;4.60;90.50;;;;;;5091870;28;20435;-71
2020/12/29 01:47:26;;;;;;;;;;;4.50;90.60;;;;;;5092351;28;20348;-70
2020/12/29 01:49:55;;;;;;;;;;;4.50;90.70;;;;;;5091941;28;20355;-70
2020/12/29 01:52:21;;;;;;;;;;;4.40;91.10;;;;;;5092083;28;19931;-71
2020/12/29 01:54:48;;;;;;;;;;;4.40;91.80;;;;;;5091938;28;19931;-70
2020/12/29 01:57:14;;;;;;;;;;;4.40;91.00;;;;;;5091978;28;20182;-70
2020/12/29 01:59:41;;;;;;;;;;;4.40;91.40;;;;;;5091800;28;19924;-71
2020/12/29 02:02:07;;;;;;;;;;;4.40;91.80;;;;;;5091866;28;20305;-71
2020/12/29 02:04:34;;;;;;;;;;;4.30;91.00;;;;;;5091898;28;19924;-70
2020/12/29 02:07:00;;;;;;;;;;;4.40;91.80;;;;;;5091902;28;19973;-71
2020/12/29 02:09:27;;;;;;;;;;;4.40;91.30;;;;;;5091485;28;19947;-71
2020/12/29 02:11:53;;;;;;;;;;;4.40;91.10;;;;;;5092035;28;19924;-72
2020/12/29 02:14:20;;;;;;;;;;;4.50;90.70;;;;;;5091621;28;19935;-76
2020/12/29 02:16:46;;;;;;;;;;;4.40;91.10;;;;;;5091334;28;19970;-70
2020/12/29 02:19:12;;;;;;;;;;;4.50;90.90;;;;;;5091255;28;19928;-71
2020/12/29 02:21:38;;;;;;;;;;;4.40;91.20;;;;;;5091441;28;19928;-71
2020/12/29 02:24:05;;;;;;;;;;;4.50;91.00;;;;;;5091332;28;20377;-71
2020/12/29 02:26:32;;;;;;;;;;;4.50;91.10;;;;;;5098598;28;19934;-72
2020/12/29 02:28:59;;;;;;;;;;;4.50;90.90;;;;;;5110901;28;20420;-71
2020/12/29 02:31:26;;;;;;;;;;;4.60;91.00;;;;;;5111708;28;19924;-70
2020/12/29 02:33:52;;;;;;;;;;;4.60;91.30;;;;;;5092462;28;19924;-71
2020/12/29 02:36:18;;;;;;;;;;;4.60;90.50;;;;;;5091106;28;19981;-71
2020/12/29 02:38:45;;;;;;;;;;;4.50;90.80;;;;;;5108867;28;19923;-70
2020/12/29 02:41:12;;;;;;;;;;;4.60;91.40;;;;;;5105856;28;19978;-72
2020/12/29 02:43:38;;;;;;;;;;;4.60;90.50;;;;;;5091239;28;19928;-70
2020/12/29 02:46:05;;;;;;;;;;;4.70;90.90;;;;;;5091031;28;19928;-71
2020/12/29 02:48:31;;;;;;;;;;;4.60;90.50;;;;;;5090964;28;19939;-71
2020/12/29 02:50:57;;;;;;;;;;;4.70;90.50;;;;;;5091083;28;19940;-71
2020/12/29 02:53:24;;;;;;;;;;;4.70;91.20;;;;;;5090972;28;20323;-70
2020/12/29 02:55:50;;;;;;;;;;;4.60;90.40;;;;;;5091157;28;20376;-70
2020/12/29 02:58:16;;;;;;;;;;;4.50;90.90;;;;;;5090756;28;20399;-71
2020/12/29 03:00:42;;;;;;;;;;;4.50;90.70;;;;;;5090808;28;20338;-71
2020/12/29 03:03:09;;;;;;;;;;;4.60;90.50;;;;;;5090857;28;19924;-71
2020/12/29 03:05:35;;;;;;;;;;;4.60;90.50;;;;;;5090483;28;19931;-70
2020/12/29 03:08:01;;;;;;;;;;;4.60;90.60;;;;;;5090624;28;19947;-71
2020/12/29 03:10:28;;;;;;;;;;;4.50;90.70;;;;;;5090693;28;19935;-70
2020/12/29 03:12:54;;;;;;;;;;;4.50;90.70;;;;;;5090726;28;20550;-71
2020/12/29 03:15:20;;;;;;;;;;;4.50;90.70;;;;;;5090748;28;19924;-70
2020/12/29 03:17:47;;;;;;;;;;;4.60;91.40;;;;;;5110841;28;20307;-71
2020/12/29 03:20:13;;;;;;;;;;;4.60;90.90;;;;;;5110740;28;19924;-71
2020/12/29 03:22:39;;;;;;;;;;;4.50;91.00;;;;;;5110511;28;20011;-70
2020/12/29 03:25:06;;;;;;;;;;;4.50;91.40;;;;;;5110964;28;19924;-70
2020/12/29 03:27:36;;;;;;;;;;;4.60;91.50;;;;;;5093675;28;20392;-71
2020/12/29 03:30:03;;;;;;;;;;;4.60;91.40;;;;;;5090452;28;20392;-70
2020/12/29 03:32:29;;;;;;;;;;;4.70;91.00;;;;;;5094826;28;19928;-70
2020/12/29 03:34:55;;;;;;;;;;;4.80;91.30;;;;;;5090377;28;19932;-71
2020/12/29 03:37:21;;;;;;;;;;;4.90;90.90;;;;;;5096283;28;19928;-71
2020/12/29 03:39:48;;;;;;;;;;;4.80;90.20;;;;;;5110656;28;19927;-69
2020/12/29 03:42:14;;;;;;;;;;;4.80;90.40;;;;;;5096098;28;19927;-71
2020/12/29 03:44:40;;;;;;;;;;;4.90;90.90;;;;;;5090347;28;19931;-70
2020/12/29 03:47:07;;;;;;;;;;;4.80;90.90;;;;;;5072240;28;20182;-70
2020/12/29 03:49:33;;;;;;;;;;;4.90;91.00;;;;;;5090150;28;19943;-71
2020/12/29 03:52:00;;;;;;;;;;;4.90;90.30;;;;;;5090084;28;19931;-71
2020/12/29 03:54:26;;;;;;;;;;;5.00;90.70;;;;;;5089950;28;19977;-72
2020/12/29 03:56:52;;;;;;;;;;;5.00;90.90;;;;;;5090408;28;19931;-71
2020/12/29 03:59:18;;;;;;;;;;;5.00;90.40;;;;;;5090438;28;19924;-71
2020/12/29 04:01:44;;;;;;;;;;;5.00;90.50;;;;;;5090236;28;19938;-70
2020/12/29 04:04:11;;;;;;;;;;;5.00;90.30;;;;;;5090330;28;19931;-69
2020/12/29 04:06:37;;;;;;;;;;;5.00;90.70;;;;;;5089640;28;19939;-70
2020/12/29 04:09:04;;;;;;;;;;;4.90;90.70;;;;;;5090191;28;19985;-71
2020/12/29 04:11:30;;;;;;;;;;;5.00;90.80;;;;;;5090017;28;19943;-72
2020/12/29 04:13:56;;;;;;;;;;;5.00;90.50;;;;;;5089875;28;19924;-70
2020/12/29 04:16:22;;;;;;;;;;;5.00;90.70;;;;;;5090346;28;19928;-70
2020/12/29 04:18:49;;;;;;;;;;;5.10;90.70;;;;;;5089888;28;20067;-70
2020/12/29 04:21:16;;;;;;;;;;;5.20;90.50;;;;;;5089739;28;19931;-70
2020/12/29 04:23:42;;;;;;;;;;;5.20;90.40;;;;;;5089975;28;19973;-71
2020/12/29 04:26:10;;;;;;;;;;;5.20;90.30;;;;;;5093848;28;20419;-75
2020/12/29 04:28:36;;;;;;;;;;;5.20;90.10;;;;;;5110235;28;19936;-71
2020/12/29 04:31:03;;;;;;;;;;;5.20;90.60;;;;;;5110145;28;19924;-70
2020/12/29 04:33:29;;;;;;;;;;;5.30;90.40;;;;;;5094654;28;19932;-71
2020/12/29 04:35:55;;;;;;;;;;;5.40;89.70;;;;;;5089649;28;20079;-70
2020/12/29 04:38:21;;;;;;;;;;;5.30;90.60;;;;;;5104254;28;19947;-70
2020/12/29 04:40:48;;;;;;;;;;;5.40;90.40;;;;;;5107769;28;19927;-69
2020/12/29 04:43:14;;;;;;;;;;;5.40;90.50;;;;;;5090000;28;19924;-73
2020/12/29 04:45:41;;;;;;;;;;;5.60;89.70;;;;;;5091249;28;19947;-71
2020/12/29 04:48:08;;;;;;;;;;;5.60;90.10;;;;;;5090608;28;19979;-70
2020/12/29 04:50:34;;;;;;;;;;;5.50;90.00;;;;;;5090875;28;20346;-70
2020/12/29 04:53:01;;;;;;;;;;;5.50;90.10;;;;;;5093829;28;19924;-72
2020/12/29 04:55:29;;;;;;;;;;;5.50;90.60;;;;;;5093577;28;19928;-71
2020/12/29 04:57:56;;;;;;;;;;;5.60;90.10;;;;;;5093530;28;19927;-70
2020/12/29 05:00:25;;;;;;;;;;;5.70;89.30;;;;;;5093209;28;19928;-70
2020/12/29 05:02:52;;;;;;;;;;;5.60;90.40;;;;;;5092788;28;19924;-70
2020/12/29 05:05:18;;;;;;;;;;;5.70;90.00;;;;;;5092954;28;20376;-71
2020/12/29 05:07:45;;;;;;;;;;;5.80;88.80;;;;;;5093454;28;19931;-71
2020/12/29 05:10:12;;;;;;;;;;;5.80;90.20;;;;;;5092959;28;19947;-71
2020/12/29 05:12:51;;;;;;;;;;;5.70;90.10;;;;;;5092982;28;19932;-70
2020/12/29 05:15:19;;;;;;;;;;;5.70;89.60;;;;;;5093428;28;20288;-71
2020/12/29 05:17:46;;;;;;;;;;;5.60;90.40;;;;;;5113552;28;20373;-70
2020/12/29 05:20:19;;;;;;;;;;;5.60;90.60;;;;;;5113420;28;20002;-71
2020/12/29 05:22:45;;;;;;;;;;;5.70;90.50;;;;;;5112962;28;19924;-70
2020/12/29 05:25:14;;;;;;;;;;;5.70;90.30;;;;;;5113345;28;19946;-72
2020/12/29 05:27:43;;;;;;;;;;;5.70;90.30;;;;;;5095556;28;20118;-71
2020/12/29 05:30:09;;;;;;;;;;;5.90;89.70;;;;;;5092814;28;19924;-71
2020/12/29 05:32:39;;;;;;;;;;;5.90;89.50;;;;;;5097320;28;19924;-72
2020/12/29 05:35:12;;;;;;;;;;;5.90;90.10;;;;;;5092753;28;19924;-71
2020/12/29 05:37:39;;;;;;;;;;;5.90;88.80;;;;;;5100950;28;19924;-70
2020/12/29 05:40:22;;;;;;;;;;;5.80;90.00;;;;;;5111461;28;20358;-72
2020/12/29 05:42:48;;;;;;;;;;;5.80;90.20;;;;;;5093806;28;19928;-70
2020/12/29 05:45:16;;;;;;;;;;;5.80;90.00;;;;;;5091919;28;20331;-70
2020/12/29 05:47:45;;;;;;;;;;;5.80;90.10;;;;;;5091979;28;20038;-70
2020/12/29 05:50:13;;;;;;;;;;;5.70;90.00;;;;;;5092451;28;19973;-72
2020/12/29 05:52:40;;;;;;;;;;;5.60;90.10;;;;;;5092262;28;20292;-70
2020/12/29 05:55:06;;;;;;;;;;;5.60;90.20;;;;;;5093776;28;19931;-72
2020/12/29 05:57:33;;;;;;;;;;;5.70;90.40;;;;;;5092830;28;19930;-72
2020/12/29 06:00:00;;;;;;;;;;;5.60;90.60;;;;;;5092729;28;19928;-71
2020/12/29 06:02:26;;;;;;;;;;;5.70;90.20;;;;;;5091487;28;20388;-70
2020/12/29 06:04:53;;;;;;;;;;;5.70;90.10;;;;;;5092661;28;19928;-71
2020/12/29 06:07:24;;;;;;;;;;;5.70;90.20;;;;;;5076688;28;19924;-70
2020/12/29 06:09:50;;;;;;;;;;;5.70;90.50;;;;;;5074096;28;20395;-70
2020/12/29 06:12:25;;;;;;;;;;;5.70;89.30;;;;;;5091420;28;19924;-70
2020/12/29 06:14:56;;;;;;;;;;;5.60;90.00;;;;;;5091652;28;19981;-70
2020/12/29 06:17:31;;;;;;;;;;;5.60;90.30;;;;;;5091350;28;19924;-69
2020/12/29 06:20:03;;;;;;;;;;;5.50;90.20;;;;;;5091535;28;19932;-71
2020/12/29 06:22:30;;;;;;;;;;;5.50;90.10;;;;;;5091500;28;19924;-70
2020/12/29 06:24:57;;;;;;;;;;;5.40;89.90;;;;;;5091848;28;19942;-71
2020/12/29 06:27:27;;;;;;;;;;;5.40;90.00;;;;;;5091601;28;19992;-71
2020/12/29 06:29:54;;;;;;;;;;;5.40;90.10;;;;;;5092026;28;20292;-72
2020/12/29 06:32:20;;;;;;;;;;;5.40;90.20;;;;;;5095666;28;19931;-71
2020/12/29 06:34:47;;;;;;;;;;;5.40;90.10;;;;;;5091540;28;20526;-71
2020/12/29 06:37:19;;;;;;;;;;;5.30;90.00;;;;;;5096122;28;19927;-71
2020/12/29 06:39:46;;;;;;;;;;;5.30;90.00;;;;;;5111601;28;19976;-70
2020/12/29 06:42:13;;;;;;;;;;;5.20;90.20;;;;;;5111167;28;19930;-70
2020/12/29 06:44:39;;;;;;;;;;;5.20;90.40;;;;;;5093001;28;20391;-74
2020/12/29 06:47:06;;;;;;;;;;;5.10;90.50;;;;;;5111334;28;19953;-70
2020/12/29 06:49:33;;;;;;;;;;;5.20;90.30;;;;;;5111043;28;20310;-70
2020/12/29 06:52:16;;;;;;;;;;;5.10;90.70;;;;;;5097622;28;19924;-70
2020/12/29 06:54:46;;;;;;;;;;;5.10;90.50;;;;;;5090589;28;19924;-70
2020/12/29 06:57:13;;;;;;;;;;;5.20;90.30;;;;;;5090897;28;19924;-70
2020/12/29 06:59:40;;;;;;;;;;;5.10;90.20;;;;;;5090791;28;19927;-71
2020/12/29 07:02:17;;;;;;;;;;;5.20;90.40;;;;;;5090514;28;20387;-70
2020/12/29 07:04:49;;;;;;;;;;;5.20;90.40;;;;;;5090651;28;19924;-73
2020/12/29 07:07:23;;;;;;;;;;;5.10;90.30;;;;;;5091075;28;20007;-71
2020/12/29 07:09:49;;;;;;;;;;;5.10;89.90;;;;;;5090945;28;19924;-74
2020/12/29 07:12:17;;;;;;;;;;;5.10;90.10;;;;;;5091484;28;19924;-71
2020/12/29 07:14:51;;;;;;;;;;;5.10;90.00;;;;;;5092704;28;19969;-72
2020/12/29 07:17:23;;;;;;;;;;;5.10;89.80;;;;;;5109351;28;19924;-71
2020/12/29 07:19:49;;;;;;;;;;;5.10;89.40;;;;;;5112726;28;20337;-70
2020/12/29 07:22:17;;;;;;;;;;;5.00;90.40;;;;;;5113301;28;19977;-71
2020/12/29 07:24:44;;;;;;;;;;;5.00;90.00;;;;;;5111555;28;19927;-70
2020/12/29 07:27:11;;;;;;;;;;;5.00;90.20;;;;;;5097764;28;19970;-70
2020/12/29 07:29:55;;;;;;;;;;;4.90;90.10;;;;;;5090320;28;19924;-70
2020/12/29 07:32:21;;;;;;;;;;;5.00;90.10;;;;;;5094665;28;19924;-70
2020/12/29 07:34:48;;;;;;;;;;;4.90;90.00;;;;;;5090388;28;19928;-70
2020/12/29 07:37:15;;;;;;;;;;;4.80;90.00;;;;;;5095526;28;19924;-71
2020/12/29 07:39:43;;;;;;;;;;;4.80;89.90;;;;;;5110674;28;19939;-71
2020/12/29 07:42:09;;;;;;;;;;;4.80;90.00;;;;;;5096927;28;19924;-72
2020/12/29 07:44:36;;;;;;;;;;;4.70;90.20;;;;;;5090185;28;20399;-70
2020/12/29 07:47:02;;;;;;;;;;;4.80;89.80;;;;;;5090360;28;19924;-69
2020/12/29 07:49:28;;;;;;;;;;;4.80;89.50;;;;;;5089729;28;19928;-70
2020/12/29 07:51:54;;;;;;;;;;;4.80;89.20;;;;;;5090053;28;20122;-70
2020/12/29 07:54:21;;;;;;;;;;;4.80;89.70;;;;;;5090181;28;19981;-70
2020/12/29 07:56:47;;;;;;;;;;;4.80;89.40;;;;;;5091025;28;19924;-70
2020/12/29 07:59:13;;;;;;;;;;;4.70;90.10;;;;;;5091161;28;20296;-72
2020/12/29 08:01:49;;;;;;;;;;;4.70;89.50;;;;;;5091246;28;19924;-72
2020/12/29 08:04:31;;;;;;;;;;;4.60;89.10;;;;;;5092501;28;20359;-71
2020/12/29 08:06:58;;;;;;;;;;;4.60;88.90;;;;;;5092220;28;19924;-70
2020/12/29 08:09:24;;;;;;;;;;;4.70;90.00;;;;;;5090821;28;20379;-71
2020/12/29 08:11:51;;;;;;;;;;;4.70;89.40;;;;;;5090422;28;19981;-71
2020/12/29 08:14:17;;;;;;;;;;;4.70;89.20;;;;;;5089985;28;19928;-70
2020/12/29 08:16:44;;;;;;;;;;;4.70;88.50;;;;;;5101997;28;19935;-73
2020/12/29 08:19:10;;;;;;;;;;;4.60;89.20;;;;;;5110925;28;19923;-71
2020/12/29 08:21:37;;;;;;;;;;;4.70;88.30;;;;;;5110511;28;19927;-70
2020/12/29 08:24:04;;;;;;;;;;;4.80;88.50;;;;;;5110828;28;19924;-72
2020/12/29 08:26:31;;;;;;;;;;;4.80;88.80;;;;;;5105584;28;20376;-71
2020/12/29 08:28:57;;;;;;;;;;;4.90;88.20;;;;;;5095323;28;19924;-71
2020/12/29 08:31:25;;;;;;;;;;;4.90;88.00;;;;;;5096206;28;19924;-72
2020/12/29 08:33:52;;;;;;;;;;;4.90;88.60;;;;;;5100749;28;20426;-71
2020/12/29 08:36:22;;;;;;;;;;;4.90;88.50;;;;;;5098334;28;19924;-72
2020/12/29 08:39:01;;;;;;;;;;;4.90;88.60;;;;;;5097606;28;19924;-72
2020/12/29 08:41:34;;;;;;;;;;;4.90;87.60;;;;;;5110696;28;19931;-74
2020/12/29 08:44:01;;;;;;;;;;;5.00;88.30;;;;;;5097305;28;19925;-71
2020/12/29 08:46:32;;;;;;;;;;;5.10;88.00;;;;;;5095118;28;19930;-72
2020/12/29 08:48:59;;;;;;;;;;;5.10;87.10;;;;;;5094699;28;20210;-72
2020/12/29 08:51:52;;;;;;;;;;;5.30;85.50;;;;;;5093745;28;20342;-71
2020/12/29 08:54:18;;;;;;;;;;;5.40;86.70;;;;;;5089151;28;19928;-71
2020/12/29 08:56:45;;;;;;;;;;;5.50;86.30;;;;;;5094576;28;19924;-71
2020/12/29 08:59:12;;;;;;;;;;;5.60;85.10;;;;;;5075209;28;19932;-70
2020/12/29 09:01:40;;;;;;;;;;;5.70;85.70;;;;;;5092686;28;19928;-71
2020/12/29 09:04:23;;;;;;;;;;;5.80;84.40;;;;;;5092925;28;19923;-71
2020/12/29 09:07:08;;;;;;;;;;;5.90;84.10;;;;;;5092847;28;19932;-71
2020/12/29 09:09:52;;;;;;;;;;;5.90;85.00;;;;;;5092826;28;20307;-70
2020/12/29 09:12:28;;;;;;;;;;;6.00;84.80;;;;;;5093198;28;19981;-66
2020/12/29 09:14:59;;;;;;;;;;;6.20;84.20;;;;;;5092934;28;20358;-65
2020/12/29 09:17:27;;;;;;;;;;;6.30;82.80;;;;;;5111107;28;19928;-69
2020/12/29 09:20:11;;;;;;;;;;;6.50;82.00;;;;;;5113135;28;19927;-69
2020/12/29 09:22:50;;;;;;;;;;;6.50;80.10;;;;;;5094780;28;20175;-69
2020/12/29 09:25:23;;;;;;;;;;;6.60;80.60;;;;;;5112913;28;20340;-69
2020/12/29 09:27:50;;;;;;;;;;;6.50;81.10;;;;;;5094371;28;19944;-69
2020/12/29 09:30:16;;;;;;;;;;;6.50;81.20;;;;;;5092341;28;19924;-70
2020/12/29 09:32:43;;;;;;;;;;;6.40;81.10;;;;;;5096912;28;19946;-70
2020/12/29 09:35:25;;;;;;;;;;;6.30;81.40;;;;;;5093025;28;19927;-70
2020/12/29 09:37:52;;;;;;;;;;;6.40;82.00;;;;;;5103078;28;19959;-69
2020/12/29 09:40:18;;;;;;;;;;;6.60;81.20;;;;;;5112339;28;19927;-69
2020/12/29 09:42:45;;;;;;;;;;;6.70;80.90;;;;;;5094029;28;19935;-69
2020/12/29 09:45:11;;;;;;;;;;;6.80;81.40;;;;;;5092108;28;19947;-70
2020/12/29 09:47:38;;;;;;;;;;;6.90;79.40;;;;;;5092015;28;19924;-69
2020/12/29 09:50:04;;;;;;;;;;;6.70;79.80;;;;;;5091567;28;19924;-69
2020/12/29 09:52:31;;;;;;;;;;;6.80;80.00;;;;;;5092310;28;20346;-69
2020/12/29 09:54:57;;;;;;;;;;;6.50;80.20;;;;;;5092486;28;19945;-67
2020/12/29 09:57:23;;;;;;;;;;;6.40;82.40;;;;;;5092309;28;19931;-70
2020/12/29 09:59:49;;;;;;;;;;;6.60;81.70;;;;;;5091871;28;19924;-70
2020/12/29 10:02:16;;;;;;;;;;;6.70;81.10;;;;;;5092066;28;19931;-70
2020/12/29 10:04:43;;;;;;;;;;;7.00;81.20;;;;;;5091496;28;19924;-69
2020/12/29 10:07:09;;;;;;;;;;;6.80;81.00;;;;;;5091535;28;20404;-70
2020/12/29 10:09:35;;;;;;;;;;;6.60;81.40;;;;;;5092047;28;19928;-70
2020/12/29 10:12:01;;;;;;;;;;;6.70;82.30;;;;;;5091650;28;19928;-70
2020/12/29 10:14:28;;;;;;;;;;;6.50;82.00;;;;;;5091650;28;19969;-73
2020/12/29 10:16:55;;;;;;;;;;;6.40;81.70;;;;;;5105402;28;19930;-72
2020/12/29 10:19:21;;;;;;;;;;;6.50;82.30;;;;;;5112055;28;19931;-74
2020/12/29 10:21:56;;;;;;;;;;;6.20;83.60;;;;;;5111920;28;19923;-72
2020/12/29 10:24:23;;;;;;;;;;;6.30;83.80;;;;;;5112050;28;20269;-69
2020/12/29 10:26:52;;;;;;;;;;;6.30;84.10;;;;;;5101620;28;20015;-70
2020/12/29 10:29:19;;;;;;;;;;;6.60;83.10;;;;;;5091354;28;19935;-66
2020/12/29 10:31:45;;;;;;;;;;;6.50;83.40;;;;;;5092207;28;19924;-67
2020/12/29 10:34:12;;;;;;;;;;;6.50;84.40;;;;;;5094740;28;19935;-72
2020/12/29 10:36:39;;;;;;;;;;;6.50;85.00;;;;;;5091148;28;19928;-71
2020/12/29 10:39:06;;;;;;;;;;;6.50;84.60;;;;;;5111647;28;20372;-72
2020/12/29 10:41:34;;;;;;;;;;;6.50;84.30;;;;;;5103185;28;20015;-71
2020/12/29 10:44:01;;;;;;;;;;;6.80;83.50;;;;;;5091271;28;20356;-70
2020/12/29 10:46:27;;;;;;;;;;;6.70;82.90;;;;;;5091404;28;19928;-70
2020/12/29 10:48:54;;;;;;;;;;;6.80;83.60;;;;;;5090264;28;19924;-70
2020/12/29 10:51:20;;;;;;;;;;;6.90;83.00;;;;;;5090564;28;20419;-70
2020/12/29 10:53:47;;;;;;;;;;;6.80;83.00;;;;;;5090970;28;20292;-70
2020/12/29 10:56:13;;;;;;;;;;;6.80;83.50;;;;;;5091272;28;19931;-75
2020/12/29 10:58:41;;;;;;;;;;;6.60;84.00;;;;;;5092311;28;19928;-69
2020/12/29 11:01:08;;;;;;;;;;;6.70;83.30;;;;;;5091627;28;19947;-69
2020/12/29 11:03:34;;;;;;;;;;;6.80;84.30;;;;;;5090710;28;19931;-69
2020/12/29 11:06:01;;;;;;;;;;;6.60;84.00;;;;;;5091545;28;19924;-69
2020/12/29 11:08:28;;;;;;;;;;;6.60;85.10;;;;;;5091787;28;19935;-72
2020/12/29 11:10:55;;;;;;;;;;;6.70;84.30;;;;;;5091428;28;19924;-70
2020/12/29 11:13:21;;;;;;;;;;;6.50;85.60;;;;;;5091796;28;19928;-72
2020/12/29 11:15:53;;;;;;;;;;;6.70;85.00;;;;;;5091122;28;20408;-70
2020/12/29 11:18:20;;;;;;;;;;;6.70;85.00;;;;;;5090631;28;19928;-69
2020/12/29 11:20:49;;;;;;;;;;;6.60;84.50;;;;;;5091173;28;19924;-70
2020/12/29 11:23:15;;;;;;;;;;;6.60;85.40;;;;;;5090982;28;20403;-69
2020/12/29 11:25:42;;;;;;;;;;;6.80;84.70;;;;;;5072960;28;20292;-70
2020/12/29 11:28:08;;;;;;;;;;;6.80;83.80;;;;;;5110432;28;19951;-70
2020/12/29 11:30:35;;;;;;;;;;;6.90;83.60;;;;;;5110400;28;19924;-69
2020/12/29 11:33:01;;;;;;;;;;;7.10;82.40;;;;;;5098743;28;19928;-69
2020/12/29 11:35:27;;;;;;;;;;;7.00;81.90;;;;;;5090317;28;19970;-70
2020/12/29 11:37:53;;;;;;;;;;;7.10;82.30;;;;;;5100730;28;19924;-70
2020/12/29 11:40:20;;;;;;;;;;;7.20;82.70;;;;;;5110208;28;19930;-70
2020/12/29 11:42:49;;;;;;;;;;;7.30;81.20;;;;;;5090964;28;19928;-70
2020/12/29 11:45:15;;;;;;;;;;;7.20;81.30;;;;;;5089875;28;19950;-68
2020/12/29 11:47:42;;;;;;;;;;;7.30;81.10;;;;;;5090285;28;19932;-70
2020/12/29 11:50:08;;;;;;;;;;;7.40;81.30;;;;;;5069680;28;20420;-69
2020/12/29 11:52:34;;;;;;;;;;;7.40;80.50;;;;;;5069512;28;19924;-70
2020/12/29 11:55:01;;;;;;;;;;;7.50;80.20;;;;;;5069342;28;20384;-69
2020/12/29 11:57:27;;;;;;;;;;;7.50;80.30;;;;;;5069583;28;19924;-71
2020/12/29 11:59:53;;;;;;;;;;;7.40;80.60;;;;;;5070125;28;19939;-72
2020/12/29 12:02:19;;;;;;;;;;;7.30;80.70;;;;;;5073359;28;19928;-69
2020/12/29 12:04:46;;;;;;;;;;;7.30;81.50;;;;;;5073820;28;19932;-70
2020/12/29 12:07:12;;;;;;;;;;;7.20;79.70;;;;;;5073747;28;19933;-70
2020/12/29 12:09:38;;;;;;;;;;;7.30;82.00;;;;;;5073369;28;20405;-71
2020/12/29 12:12:05;;;;;;;;;;;7.40;82.20;;;;;;5073420;28;19925;-65
2020/12/29 12:14:32;;;;;;;;;;;7.40;81.20;;;;;;5073795;28;19928;-69
2020/12/29 12:16:58;;;;;;;;;;;7.50;80.60;;;;;;5073443;28;19928;-70
2020/12/29 12:19:25;;;;;;;;;;;7.30;81.50;;;;;;5073453;28;19948;-70
2020/12/29 12:21:51;;;;;;;;;;;7.30;81.20;;;;;;5073354;28;19929;-66
2020/12/29 12:24:17;;;;;;;;;;;7.20;81.20;;;;;;5073277;28;19928;-68
2020/12/29 12:26:43;;;;;;;;;;;7.10;81.40;;;;;;5082773;28;19928;-70
2020/12/29 12:29:10;;;;;;;;;;;7.10;82.10;;;;;;5093235;28;19924;-68
2020/12/29 12:31:36;;;;;;;;;;;7.30;82.10;;;;;;5092975;28;19932;-69
2020/12/29 12:34:02;;;;;;;;;;;7.30;81.50;;;;;;5073037;28;19925;-66
2020/12/29 12:36:29;;;;;;;;;;;7.30;80.30;;;;;;5073059;28;20273;-71
2020/12/29 12:38:55;;;;;;;;;;;7.40;80.80;;;;;;5091945;28;19924;-66
2020/12/29 12:41:22;;;;;;;;;;;7.40;81.20;;;;;;5086494;28;19925;-69
2020/12/29 12:43:48;;;;;;;;;;;7.60;79.50;;;;;;5072753;28;20412;-70
2020/12/29 12:46:15;;;;;;;;;;;7.60;79.50;;;;;;5072891;28;19994;-67
2020/12/29 12:48:41;;;;;;;;;;;7.70;79.00;;;;;;5080922;28;20172;-71
2020/12/29 12:51:08;;;;;;;;;;;7.70;79.70;;;;;;5092907;28;19935;-70
2020/12/29 12:53:34;;;;;;;;;;;7.60;79.40;;;;;;5093066;28;19951;-70
2020/12/29 12:56:00;;;;;;;;;;;7.50;79.60;;;;;;5092858;28;19928;-69
2020/12/29 12:58:27;;;;;;;;;;;7.30;80.60;;;;;;5074876;28;20300;-68
2020/12/29 13:00:53;;;;;;;;;;;7.40;81.30;;;;;;5093311;28;19924;-70
2020/12/29 13:03:19;;;;;;;;;;;7.40;81.20;;;;;;5092899;28;20400;-70
2020/12/29 13:05:45;;;;;;;;;;;7.30;81.20;;;;;;5093099;28;19989;-70
2020/12/29 13:08:12;;;;;;;;;;;7.40;81.60;;;;;;5092974;28;19932;-71
2020/12/29 13:10:38;;;;;;;;;;;7.30;80.70;;;;;;5093091;28;19928;-70
2020/12/29 13:13:08;;;;;;;;;;;7.20;81.40;;;;;;5075024;28;19930;-68
2020/12/29 13:15:34;;;;;;;;;;;7.20;81.80;;;;;;5093027;28;19939;-67
2020/12/29 13:18:01;;;;;;;;;;;7.30;80.80;;;;;;5092918;28;19927;-69
2020/12/29 13:20:27;;;;;;;;;;;7.10;81.70;;;;;;5093101;28;19924;-70
2020/12/29 13:22:53;;;;;;;;;;;7.10;82.10;;;;;;5093420;28;19924;-69
2020/12/29 13:25:20;;;;;;;;;;;7.20;83.10;;;;;;5092828;28;20346;-69
2020/12/29 13:27:49;;;;;;;;;;;7.30;81.40;;;;;;5092288;28;19927;-70
2020/12/29 13:30:15;;;;;;;;;;;7.40;81.70;;;;;;5112654;28;19930;-70
2020/12/29 13:32:41;;;;;;;;;;;7.30;81.70;;;;;;5103824;28;19928;-69
2020/12/29 13:35:07;;;;;;;;;;;7.50;81.50;;;;;;5092426;28;19950;-69
2020/12/29 13:37:34;;;;;;;;;;;7.50;81.80;;;;;;5111751;28;20345;-70
2020/12/29 13:40:00;;;;;;;;;;;7.40;82.20;;;;;;5113299;28;19938;-68
2020/12/29 13:42:26;;;;;;;;;;;7.40;82.60;;;;;;5097198;28;19962;-69
2020/12/29 13:44:52;;;;;;;;;;;7.40;82.80;;;;;;5092092;28;20419;-66
2020/12/29 13:47:19;;;;;;;;;;;7.20;83.40;;;;;;5092078;28;20411;-69
2020/12/29 13:49:46;;;;;;;;;;;7.10;84.70;;;;;;5091543;28;19932;-69
2020/12/29 13:52:14;;;;;;;;;;;7.20;83.40;;;;;;5091865;28;19947;-69
2020/12/29 13:54:40;;;;;;;;;;;7.30;84.80;;;;;;5091936;28;19951;-69
2020/12/29 13:57:06;;;;;;;;;;;7.20;84.50;;;;;;5092026;28;19924;-69
2020/12/29 13:59:33;;;;;;;;;;;7.20;84.30;;;;;;5091955;28;19928;-70
2020/12/29 14:01:59;;;;;;;;;;;7.10;83.50;;;;;;5092006;28;20346;-69
2020/12/29 14:04:25;;;;;;;;;;;7.20;83.90;;;;;;5091260;28;20320;-66
2020/12/29 14:06:52;;;;;;;;;;;7.20;85.20;;;;;;5091339;28;20414;-70
2020/12/29 14:09:19;;;;;;;;;;;7.40;84.10;;;;;;5091745;28;20316;-70
2020/12/29 14:11:54;;;;;;;;;;;7.30;83.00;;;;;;5091525;28;19951;-69
2020/12/29 14:14:24;;;;;;;;;;;7.40;83.20;;;;;;5091280;28;20346;-70
2020/12/29 14:16:53;;;;;;;;;;;7.50;83.90;;;;;;5091101;28;19924;-70
2020/12/29 14:19:20;;;;;;;;;;;7.50;82.80;;;;;;5091433;28;20456;-70
2020/12/29 14:21:46;;;;;;;;;;;7.50;82.70;;;;;;5091271;28;19923;-69
2020/12/29 14:24:16;;;;;;;;;;;7.70;82.30;;;;;;5090034;28;19924;-72
2020/12/29 14:26:49;;;;;;;;;;;7.60;82.70;;;;;;5100013;28;19923;-69
2020/12/29 14:29:16;;;;;;;;;;;7.70;81.90;;;;;;5111538;28;19930;-68
2020/12/29 14:31:46;;;;;;;;;;;7.60;82.00;;;;;;5110955;28;19949;-69
2020/12/29 14:34:13;;;;;;;;;;;7.20;83.20;;;;;;5091328;28;19954;-69